createdAt,value
2019-04-19T00:08:15.327Z,21.20
2019-04-19T00:10:56.437Z,21.30
2019-04-19T00:16:21.567Z,21.20
2019-04-19T00:19:31.591Z,21.20
2019-04-19T00:22:04.744Z,21.10
2019-04-19T00:24:12.134Z,21.10
2019-04-19T00:27:02.618Z,21.10
2019-04-19T00:29:42.579Z,21.10
2019-04-19T00:32:34.910Z,21.10
2019-04-19T00:35:11.682Z,21.00
2019-04-19T00:37:40.674Z,21.00
2019-04-19T00:40:36.845Z,21.00
2019-04-19T00:43:30.973Z,20.90
2019-04-19T00:46:04.827Z,20.90
2019-04-19T00:48:46.482Z,20.90
2019-04-19T00:51:01.007Z,21.00
2019-04-19T00:53:28.724Z,21.00
2019-04-19T00:55:57.516Z,21.00
2019-04-19T00:58:42.685Z,21.00
2019-04-19T01:01:15.553Z,21.00
2019-04-19T01:03:59.621Z,20.90
2019-04-19T01:06:36.975Z,20.90
2019-04-19T01:09:31.293Z,20.90
2019-04-19T01:12:20.690Z,20.80
2019-04-19T01:15:09.331Z,20.80
2019-04-19T01:18:08.442Z,20.80
2019-04-19T01:20:18.783Z,20.70
2019-04-19T01:22:48.924Z,20.70
2019-04-19T01:25:21.323Z,20.70
2019-04-19T01:27:48.837Z,20.70
2019-04-19T01:30:40.257Z,20.60
2019-04-19T01:33:08.620Z,20.60
2019-04-19T01:35:42.178Z,20.70
2019-04-19T01:38:10.124Z,20.60
2019-04-19T01:40:59.148Z,20.60
2019-04-19T01:43:31.761Z,20.50
2019-04-19T01:46:06.535Z,20.50
2019-04-19T01:48:53.965Z,20.50
2019-04-19T01:51:49.093Z,20.50
2019-04-19T01:54:36.026Z,20.40
2019-04-19T01:56:58.268Z,20.40
2019-04-19T01:59:24.843Z,20.40
2019-04-19T02:01:58.124Z,20.40
2019-04-19T02:04:27.753Z,20.30
2019-04-19T02:06:54.895Z,20.30
2019-04-19T02:09:34.793Z,20.20
2019-04-19T02:12:11.670Z,20.20
2019-04-19T02:14:37.626Z,20.20
2019-04-19T02:17:02.568Z,20.20
2019-04-19T02:19:29.723Z,20.20
2019-04-19T02:22:00.098Z,20.10
2019-04-19T02:24:35.434Z,20.10
2019-04-19T02:27:05.021Z,20.10
2019-04-19T02:35:17.173Z,20.10
2019-04-19T02:45:26.519Z,20.00
2019-04-19T02:48:11.009Z,19.90
2019-04-19T02:53:29.920Z,19.70
2019-04-19T02:59:37.339Z,19.80
2019-04-19T03:02:14.814Z,19.80
2019-04-19T03:04:45.573Z,19.70
2019-04-19T03:06:46.441Z,19.70
2019-04-19T03:09:09.230Z,19.70
2019-04-19T03:11:53.347Z,19.60
2019-04-19T03:14:20.629Z,19.60
2019-04-19T03:16:58.233Z,19.60
2019-04-19T03:19:20.913Z,19.60
2019-04-19T03:21:57.940Z,19.50
2019-04-19T03:24:22.502Z,19.50
2019-04-19T03:26:55.456Z,19.50
2019-04-19T03:29:20.636Z,19.40
2019-04-19T03:34:51.190Z,19.40
2019-04-19T03:36:55.502Z,19.40
2019-04-19T03:39:58.679Z,19.40
2019-04-19T03:42:44.837Z,19.40
2019-04-19T03:45:12.794Z,19.30
2019-04-19T03:47:54.702Z,19.30
2019-04-19T03:50:15.551Z,19.30
2019-04-19T03:52:50.159Z,19.30
2019-04-19T03:55:19.161Z,19.20
2019-04-19T03:57:41.289Z,19.10
2019-04-19T04:00:00.474Z,19.20
2019-04-19T04:02:50.012Z,19.20
2019-04-19T04:05:20.721Z,19.10
2019-04-19T04:08:18.116Z,19.10
2019-04-19T04:11:25.350Z,19.10
2019-04-19T04:14:07.319Z,19.00
2019-04-19T04:16:50.679Z,18.90
2019-04-19T04:19:16.562Z,19.00
2019-04-19T04:22:09.654Z,19.00
2019-04-19T04:24:40.334Z,19.00
2019-04-19T04:27:37.838Z,19.00
2019-04-19T04:30:08.107Z,18.90
2019-04-19T04:32:42.866Z,18.90
2019-04-19T04:35:13.510Z,18.90
2019-04-19T04:37:44.748Z,19.00
2019-04-19T04:40:00.026Z,18.90
2019-04-19T04:42:35.660Z,18.90
2019-04-19T04:45:24.690Z,18.90
2019-04-19T04:48:07.797Z,18.80
2019-04-19T04:51:10.746Z,18.80
2019-04-19T04:53:42.796Z,18.90
2019-04-19T04:56:19.454Z,18.80
2019-04-19T04:58:50.778Z,18.80
2019-04-19T05:01:29.137Z,18.80
2019-04-19T05:04:10.442Z,18.90
2019-04-19T05:06:57.761Z,18.80
2019-04-19T05:09:51.543Z,18.70
2019-04-19T05:12:34.393Z,18.80
2019-04-19T05:15:10.066Z,18.80
2019-04-19T05:17:45.935Z,18.80
2019-04-19T05:20:14.324Z,18.80
2019-04-19T05:22:57.863Z,18.80
2019-04-19T05:25:37.596Z,18.80
2019-04-19T05:28:00.764Z,18.80
2019-04-19T05:30:43.157Z,18.80
2019-04-19T05:33:37.773Z,18.80
2019-04-19T05:36:15.576Z,18.90
2019-04-19T05:39:12.715Z,18.90
2019-04-19T05:41:53.087Z,18.80
2019-04-19T05:44:45.100Z,18.80
2019-04-19T05:50:17.075Z,18.80
2019-04-19T05:52:55.344Z,18.80
2019-04-19T05:55:32.600Z,18.70
2019-04-19T05:58:36.087Z,18.80
2019-04-19T06:01:32.873Z,18.90
2019-04-19T06:04:24.724Z,18.90
2019-04-19T06:07:08.408Z,18.90
2019-04-19T06:09:41.044Z,18.90
2019-04-19T06:15:10.348Z,19.00
2019-04-19T06:17:43.694Z,18.90
2019-04-19T06:20:18.244Z,18.90
2019-04-19T06:22:48.655Z,18.90
2019-04-19T06:25:17.852Z,18.90
2019-04-19T06:28:11.587Z,18.90
2019-04-19T06:30:25.042Z,18.90
2019-04-19T06:32:49.479Z,18.90
2019-04-19T06:35:15.373Z,18.90
2019-04-19T06:37:32.561Z,19.00
2019-04-19T06:40:10.590Z,19.00
2019-04-19T06:42:40.771Z,19.00
2019-04-19T06:45:25.350Z,19.10
2019-04-19T06:47:38.942Z,19.20
2019-04-19T06:53:15.198Z,19.10
2019-04-19T06:55:48.576Z,19.20
2019-04-19T06:58:32.795Z,19.20
2019-04-19T07:01:21.654Z,19.20
2019-04-19T07:03:52.070Z,19.20
2019-04-19T07:06:46.579Z,19.10
2019-04-19T07:12:34.074Z,19.30
2019-04-19T07:15:34.024Z,19.40
2019-04-19T07:18:07.503Z,19.60
2019-04-19T07:21:00.926Z,19.80
2019-04-19T07:23:55.973Z,20.00
2019-04-19T07:26:44.638Z,20.10
2019-04-19T07:29:12.831Z,20.20
2019-04-19T07:32:02.401Z,20.40
2019-04-19T07:35:03.571Z,20.50
2019-04-19T07:37:46.385Z,20.70
2019-04-19T07:40:37.085Z,20.70
2019-04-19T07:43:10.707Z,20.90
2019-04-19T07:48:55.411Z,21.20
2019-04-19T07:51:31.798Z,21.40
2019-04-19T07:53:56.842Z,21.50
2019-04-19T07:56:39.133Z,21.70
2019-04-19T07:59:24.603Z,21.90
2019-04-19T08:02:32.233Z,21.90
2019-04-19T08:04:50.934Z,22.20
2019-04-19T08:07:17.235Z,22.30
2019-04-19T08:10:04.175Z,22.50
2019-04-19T08:12:42.803Z,22.60
2019-04-19T08:17:47.221Z,23.00
2019-04-19T08:27:58.619Z,23.80
2019-04-19T08:30:47.742Z,23.90
2019-04-19T08:33:29.750Z,24.10
2019-04-19T08:36:03.351Z,24.30
2019-04-19T08:38:31.148Z,24.50
2019-04-19T08:41:11.778Z,24.70
2019-04-19T08:43:49.221Z,24.80
2019-04-19T08:46:12.127Z,25.20
2019-04-19T08:49:02.920Z,25.30
2019-04-19T08:51:50.648Z,25.40
2019-04-19T08:54:57.628Z,25.80
2019-04-19T08:57:30.823Z,26.00
2019-04-19T09:03:00.398Z,26.40
2019-04-19T09:05:35.699Z,26.70
2019-04-19T09:08:29.545Z,26.90
2019-04-19T09:11:16.645Z,27.10
2019-04-19T09:14:05.925Z,27.40
2019-04-19T09:17:05.664Z,27.70
2019-04-19T09:20:12.282Z,27.80
2019-04-19T09:26:01.047Z,28.30
2019-04-19T09:28:58.354Z,28.70
2019-04-19T09:31:42.079Z,29.00
2019-04-19T09:34:20.053Z,29.30
2019-04-19T09:37:18.580Z,29.40
2019-04-19T09:39:48.818Z,29.60
2019-04-19T09:44:49.739Z,30.10
2019-04-19T09:47:16.223Z,30.40
2019-04-19T09:50:01.659Z,30.60
2019-04-19T09:52:35.581Z,30.70
2019-04-19T09:55:13.530Z,31.00
2019-04-19T09:57:55.824Z,31.20
2019-04-19T10:00:30.047Z,31.40
2019-04-19T10:03:01.445Z,31.60
2019-04-19T10:05:48.694Z,31.80
2019-04-19T10:08:19.497Z,31.90
2019-04-19T10:10:50.190Z,32.10
2019-04-19T10:13:19.681Z,32.30
2019-04-19T10:16:08.239Z,32.50
2019-04-19T10:18:46.872Z,32.60
2019-04-19T10:21:41.731Z,32.80
2019-04-19T10:24:15.049Z,32.80
2019-04-19T10:27:19.384Z,33.00
2019-04-19T10:32:44.593Z,33.40
2019-04-19T10:35:33.727Z,33.50
2019-04-19T10:38:02.444Z,33.70
2019-04-19T10:40:31.430Z,33.90
2019-04-19T10:43:01.122Z,34.00
2019-04-19T10:45:30.672Z,34.40
2019-04-19T10:48:20.000Z,34.60
2019-04-19T10:50:55.805Z,34.70
2019-04-19T10:53:44.241Z,34.90
2019-04-19T10:58:52.535Z,35.20
2019-04-19T11:01:21.207Z,35.40
2019-04-19T11:03:50.755Z,35.60
2019-04-19T11:06:21.760Z,35.80
2019-04-19T11:08:50.778Z,35.90
2019-04-19T11:11:19.759Z,36.00
2019-04-19T11:13:49.896Z,36.30
2019-04-19T11:16:19.432Z,36.40
2019-04-19T11:18:48.216Z,36.50
2019-04-19T11:21:17.816Z,36.80
2019-04-19T11:23:47.593Z,37.80
2019-04-19T11:26:16.994Z,40.10
2019-04-19T11:28:47.046Z,41.90
2019-04-19T11:31:47.717Z,43.40
2019-04-19T11:34:17.742Z,44.70
2019-04-19T11:36:47.535Z,45.90
2019-04-19T11:39:16.950Z,46.90
2019-04-19T11:41:45.629Z,48.10
2019-04-19T11:44:20.918Z,49.00
2019-04-19T11:46:45.932Z,50.00
2019-04-19T11:49:25.235Z,50.80
2019-04-19T11:51:45.862Z,51.40
2019-04-19T11:54:14.595Z,51.80
2019-04-19T11:56:53.229Z,52.30
2019-04-19T11:59:36.998Z,52.50
2019-04-19T12:01:59.882Z,52.80
2019-04-19T12:04:30.104Z,53.00
2019-04-19T12:06:58.910Z,53.20
2019-04-19T12:09:27.548Z,53.40
2019-04-19T12:11:56.270Z,53.50
2019-04-19T12:14:26.891Z,53.60
2019-04-19T12:16:55.362Z,54.00
2019-04-19T12:19:36.178Z,54.40
2019-04-19T12:21:55.611Z,54.80
2019-04-19T12:24:25.039Z,54.90
2019-04-19T12:26:55.578Z,55.00
2019-04-19T12:29:34.061Z,55.30
2019-04-19T12:31:55.915Z,55.40
2019-04-19T12:34:25.815Z,55.80
2019-04-19T12:36:55.155Z,55.80
2019-04-19T12:39:25.148Z,55.60
2019-04-19T12:41:54.106Z,55.50
2019-04-19T12:44:22.866Z,55.60
2019-04-19T12:46:52.875Z,55.50
2019-04-19T12:49:22.685Z,55.20
2019-04-19T12:51:52.252Z,55.00
2019-04-19T12:54:21.024Z,55.10
2019-04-19T12:56:49.937Z,54.70
2019-04-19T12:59:21.256Z,54.30
2019-04-19T13:01:54.188Z,53.90
2019-04-19T13:04:42.882Z,53.20
2019-04-19T13:07:15.116Z,52.10
2019-04-19T13:09:44.692Z,51.00
2019-04-19T13:12:14.572Z,49.70
2019-04-19T13:14:43.888Z,48.90
2019-04-19T13:17:13.100Z,48.40
2019-04-19T13:19:42.951Z,48.30
2019-04-19T13:22:12.312Z,48.00
2019-04-19T13:24:42.574Z,47.80
2019-04-19T13:27:11.633Z,47.50
2019-04-19T13:29:41.510Z,46.90
2019-04-19T13:32:11.530Z,46.50
2019-04-19T13:34:41.191Z,46.00
2019-04-19T13:37:27.379Z,45.60
2019-04-19T13:40:14.460Z,45.40
2019-04-19T13:42:44.691Z,45.20
2019-04-19T13:45:21.048Z,45.20
2019-04-19T13:47:44.935Z,45.00
2019-04-19T13:50:22.000Z,44.80
2019-04-19T13:52:44.375Z,44.70
2019-04-19T13:55:14.728Z,44.30
2019-04-19T13:57:43.901Z,44.10
2019-04-19T14:00:18.639Z,43.80
2019-04-19T14:02:47.874Z,43.70
2019-04-19T14:05:17.816Z,43.40
2019-04-19T14:07:47.143Z,43.20
2019-04-19T14:10:17.101Z,43.10
2019-04-19T14:12:47.552Z,43.10
2019-04-19T14:15:17.156Z,43.00
2019-04-19T14:17:47.626Z,42.90
2019-04-19T14:20:29.646Z,42.90
2019-04-19T14:22:49.647Z,42.80
2019-04-19T14:25:19.114Z,42.70
2019-04-19T14:27:49.069Z,42.70
2019-04-19T14:30:17.858Z,42.60
2019-04-19T14:32:47.542Z,42.40
2019-04-19T14:35:17.302Z,42.30
2019-04-19T14:37:46.564Z,42.10
2019-04-19T14:40:15.820Z,41.90
2019-04-19T14:42:44.621Z,41.80
2019-04-19T14:45:14.220Z,41.60
2019-04-19T14:47:44.605Z,41.60
2019-04-19T14:50:14.827Z,41.50
2019-04-19T14:52:44.412Z,41.30
2019-04-19T14:55:13.723Z,41.00
2019-04-19T14:57:42.883Z,40.90
2019-04-19T15:00:12.762Z,40.70
2019-04-19T15:02:49.783Z,40.50
2019-04-19T15:05:47.717Z,40.20
2019-04-19T15:08:16.832Z,40.00
2019-04-19T15:10:45.828Z,39.60
2019-04-19T15:13:14.816Z,39.40
2019-04-19T15:15:43.758Z,39.20
2019-04-19T15:18:13.105Z,39.00
2019-04-19T15:20:53.922Z,38.70
2019-04-19T15:23:14.240Z,38.50
2019-04-19T15:25:42.998Z,38.20
2019-04-19T15:28:13.113Z,37.90
2019-04-19T15:30:44.715Z,37.60
2019-04-19T15:33:12.263Z,37.40
2019-04-19T15:35:41.611Z,37.30
2019-04-19T15:38:10.326Z,37.10
2019-04-19T15:40:40.297Z,36.80
2019-04-19T15:43:09.095Z,36.80
2019-04-19T15:45:39.004Z,36.60
2019-04-19T15:48:08.963Z,36.50
2019-04-19T15:50:38.132Z,36.40
2019-04-19T15:53:09.165Z,36.30
2019-04-19T15:55:37.889Z,36.20
2019-04-19T15:58:06.682Z,36.10
2019-04-19T16:00:44.226Z,35.90
2019-04-19T16:03:27.818Z,35.80
2019-04-19T16:06:02.239Z,35.70
2019-04-19T16:08:38.705Z,35.60
2019-04-19T16:11:32.679Z,35.40
2019-04-19T16:14:01.912Z,35.30
2019-04-19T16:16:31.197Z,35.20
2019-04-19T16:19:00.493Z,35.00
2019-04-19T16:21:35.537Z,34.80
2019-04-19T16:24:00.938Z,34.80
2019-04-19T16:26:30.873Z,34.70
2019-04-19T16:28:59.962Z,34.60
2019-04-19T16:31:28.916Z,34.40
2019-04-19T16:33:58.588Z,34.30
2019-04-19T16:36:28.896Z,34.30
2019-04-19T16:38:58.787Z,34.10
2019-04-19T16:41:28.971Z,34.00
2019-04-19T16:43:57.847Z,33.90
2019-04-19T16:46:30.209Z,33.80
2019-04-19T16:48:58.268Z,33.70
2019-04-19T16:51:38.786Z,33.60
2019-04-19T16:53:58.197Z,33.50
2019-04-19T16:56:27.800Z,33.40
2019-04-19T16:58:58.461Z,33.40
2019-04-19T17:01:28.275Z,33.20
2019-04-19T17:03:57.549Z,33.10
2019-04-19T17:06:26.662Z,33.00
2019-04-19T17:08:56.755Z,32.90
2019-04-19T17:11:25.958Z,32.90
2019-04-19T17:13:54.638Z,32.80
2019-04-19T17:16:39.014Z,32.70
2019-04-19T17:19:16.907Z,32.60
2019-04-19T17:21:55.576Z,32.50
2019-04-19T17:24:16.898Z,32.40
2019-04-19T17:26:46.827Z,32.30
2019-04-19T17:29:17.033Z,32.20
2019-04-19T17:31:45.810Z,32.10
2019-04-19T17:34:16.117Z,32.00
2019-04-19T17:36:46.298Z,31.90
2019-04-19T17:39:16.977Z,31.80
2019-04-19T17:41:46.295Z,31.70
2019-04-19T17:44:15.520Z,31.60
2019-04-19T17:46:45.013Z,31.60
2019-04-19T17:49:14.818Z,31.50
2019-04-19T17:51:56.180Z,31.40
2019-04-19T17:54:18.651Z,31.30
2019-04-19T17:56:45.431Z,31.20
2019-04-19T17:59:16.865Z,31.10
2019-04-19T18:01:46.310Z,31.00
2019-04-19T18:04:16.660Z,30.90
2019-04-19T18:06:51.142Z,30.80
2019-04-19T18:09:19.348Z,30.70
2019-04-19T18:11:47.321Z,30.60
2019-04-19T18:14:16.305Z,30.60
2019-04-19T18:16:44.984Z,30.50
2019-04-19T18:19:16.788Z,30.40
2019-04-19T18:21:44.350Z,30.30
2019-04-19T18:24:20.030Z,30.20
2019-04-19T18:26:44.360Z,30.10
2019-04-19T18:29:21.442Z,30.00
2019-04-19T18:31:50.374Z,29.90
2019-04-19T18:34:37.780Z,29.80
2019-04-19T18:37:06.963Z,29.80
2019-04-19T18:39:36.171Z,29.70
2019-04-19T18:42:06.076Z,29.60
2019-04-19T18:44:42.071Z,29.50
2019-04-19T18:47:06.833Z,29.50
2019-04-19T18:49:36.076Z,29.40
2019-04-19T18:52:10.651Z,29.30
2019-04-19T18:54:45.476Z,29.20
2019-04-19T18:57:07.832Z,29.20
2019-04-19T18:59:37.063Z,29.10
2019-04-19T19:02:10.501Z,29.00
2019-04-19T19:04:37.021Z,28.90
2019-04-19T19:07:14.363Z,28.80
2019-04-19T19:09:44.791Z,28.80
2019-04-19T19:12:11.041Z,28.70
2019-04-19T19:14:37.594Z,28.70
2019-04-19T19:17:12.114Z,28.60
2019-04-19T19:19:39.575Z,28.50
2019-04-19T19:22:08.539Z,28.50
2019-04-19T19:24:58.665Z,28.40
2019-04-19T19:27:15.249Z,28.30
2019-04-19T19:29:40.386Z,28.20
2019-04-19T19:32:14.107Z,28.20
2019-04-19T19:34:41.763Z,28.10
2019-04-19T19:37:14.532Z,28.10
2019-04-19T19:39:46.851Z,28.00
2019-04-19T19:42:41.602Z,28.00
2019-04-19T19:44:52.592Z,27.90
2019-04-19T19:48:01.283Z,27.80
2019-04-19T19:52:56.437Z,27.70
2019-04-19T19:55:18.699Z,27.60
2019-04-19T19:57:46.549Z,27.50
2019-04-19T20:00:15.833Z,27.50
2019-04-19T20:02:45.518Z,27.50
2019-04-19T20:05:12.033Z,27.40
2019-04-19T20:07:43.190Z,27.30
2019-04-19T20:10:11.979Z,27.30
2019-04-19T20:12:43.450Z,27.20
2019-04-19T20:15:12.624Z,27.20
2019-04-19T20:17:45.188Z,27.10
2019-04-19T20:20:12.084Z,27.10
2019-04-19T20:22:44.400Z,27.00
2019-04-19T20:25:25.340Z,26.90
2019-04-19T20:27:47.299Z,26.90
2019-04-19T20:30:12.310Z,26.80
2019-04-19T20:32:44.787Z,26.70
2019-04-19T20:35:17.617Z,26.70
2019-04-19T20:37:42.198Z,26.60
2019-04-19T20:40:15.621Z,26.60
2019-04-19T20:43:07.537Z,26.60
2019-04-19T20:45:26.456Z,26.50
2019-04-19T20:47:49.275Z,26.40
2019-04-19T20:50:24.323Z,26.40
2019-04-19T20:52:54.906Z,26.30
2019-04-19T20:55:35.592Z,26.30
2019-04-19T20:58:03.377Z,26.20
2019-04-19T21:00:38.802Z,26.20
2019-04-19T21:03:08.114Z,26.10
2019-04-19T21:05:42.579Z,26.10
2019-04-19T21:08:11.214Z,26.00
2019-04-19T21:10:39.215Z,26.00
2019-04-19T21:13:12.162Z,25.90
2019-04-19T21:15:40.570Z,25.80
2019-04-19T21:18:16.063Z,25.80
2019-04-19T21:20:40.559Z,25.80
2019-04-19T21:23:17.891Z,25.70
2019-04-19T21:25:46.433Z,25.70
2019-04-19T21:28:10.500Z,25.60
2019-04-19T21:30:48.260Z,25.60
2019-04-19T21:33:13.415Z,25.60
2019-04-19T21:35:49.549Z,25.50
2019-04-19T21:38:17.679Z,25.50
2019-04-19T21:40:44.947Z,25.40
2019-04-19T21:43:14.886Z,25.40
2019-04-19T21:45:48.420Z,25.30
2019-04-19T21:48:18.043Z,25.20
2019-04-19T21:50:48.734Z,25.20
2019-04-19T21:53:16.567Z,25.20
2019-04-19T21:55:54.090Z,25.20
2019-04-19T21:58:20.135Z,25.10
2019-04-19T22:01:06.018Z,25.10
2019-04-19T22:03:30.733Z,25.00
2019-04-19T22:06:08.291Z,25.00
2019-04-19T22:08:34.930Z,24.90
2019-04-19T22:11:04.591Z,24.90
2019-04-19T22:13:39.071Z,24.80
2019-04-19T22:16:08.559Z,24.80
2019-04-19T22:18:39.706Z,24.80
2019-04-19T22:21:08.848Z,24.80
2019-04-19T22:23:41.865Z,24.70
2019-04-19T22:26:21.188Z,24.70
2019-04-19T22:28:39.553Z,24.60
2019-04-19T22:31:10.384Z,24.60
2019-04-19T22:33:40.700Z,24.60
2019-04-19T22:36:10.736Z,24.60
2019-04-19T22:38:42.481Z,24.60
2019-04-19T22:41:15.137Z,24.50
2019-04-19T22:43:46.731Z,24.50
2019-04-19T22:46:17.054Z,24.50
2019-04-19T22:48:54.444Z,24.40
2019-04-19T22:51:18.905Z,24.40
2019-04-19T22:53:48.522Z,24.40
2019-04-19T22:56:28.100Z,24.30
2019-04-19T22:58:51.574Z,24.30
2019-04-19T23:01:29.985Z,24.30
2019-04-19T23:04:09.839Z,24.20
2019-04-19T23:06:38.608Z,24.10
2019-04-19T23:09:10.762Z,24.10
2019-04-19T23:11:39.564Z,24.10
2019-04-19T23:14:09.404Z,24.00
2019-04-19T23:16:45.697Z,24.00
2019-04-19T23:19:12.380Z,24.00
2019-04-19T23:21:41.943Z,24.00
2019-04-19T23:24:12.313Z,24.00
2019-04-19T23:27:00.614Z,23.90
2019-04-19T23:29:17.833Z,23.90
2019-04-19T23:31:46.217Z,23.90
2019-04-19T23:34:14.416Z,23.80
2019-04-19T23:36:50.799Z,23.80
2019-04-19T23:39:21.135Z,23.70
2019-04-19T23:41:51.040Z,23.70
2019-04-19T23:44:23.167Z,23.60
2019-04-19T23:46:56.893Z,23.50
2019-04-19T23:49:22.741Z,23.60
2019-04-19T23:51:52.607Z,23.60
2019-04-19T23:54:27.595Z,23.50
2019-04-19T23:57:04.380Z,23.40
2019-04-19T23:59:26.147Z,23.40
